Time;durP1;ratioP1;P1;durP2;ratioP2;P2;SDS_P1;SDS_P2;PMS_P1;PMS_P2;Temp;Humidity;BMP_temperature;BMP_pressure;BME280_temperature;BME280_humidity;BME280_pressure;Samples;Min_cycle;Max_cycle;Signal;HPM_P1;HPM_P2
2023/06/03 00:01:27;;;;;;;4.90;4.40;;;15.30;81.30;;;;;;5034395;28;20025;-79
2023/06/03 00:03:53;;;;;;;10.27;5.00;;;15.30;81.80;;;;;;5034488;28;20493;-78
2023/06/03 00:06:19;;;;;;;6.03;4.60;;;15.20;82.00;;;;;;5036331;28;20021;-81
2023/06/03 00:08:44;;;;;;;7.70;5.30;;;15.20;82.40;;;;;;5044557;28;20056;-79
2023/06/03 00:11:11;;;;;;;8.13;4.88;;;15.10;82.70;;;;;;5039010;28;20025;-78
2023/06/03 00:13:38;;;;;;;5.03;4.53;;;15.10;83.20;;;;;;5035361;28;20089;-79
2023/06/03 00:16:04;;;;;;;4.53;4.10;;;15.00;83.70;;;;;;5033539;28;20025;-79
2023/06/03 00:18:30;;;;;;;6.07;4.68;;;14.90;84.10;;;;;;5035079;28;20041;-79
2023/06/03 00:20:56;;;;;;;8.40;4.80;;;14.80;84.70;;;;;;5034057;28;20022;-79
2023/06/03 00:23:22;;;;;;;6.70;4.32;;;14.70;85.40;;;;;;5031495;28;20215;-79
2023/06/03 00:25:48;;;;;;;5.78;4.57;;;14.60;86.10;;;;;;5033442;28;20072;-79
2023/06/03 00:28:15;;;;;;;6.97;4.72;;;14.50;86.90;;;;;;5032823;28;20080;-79
2023/06/03 00:30:40;;;;;;;7.32;5.32;;;14.50;87.60;;;;;;5036298;28;20025;-79
2023/06/03 00:33:06;;;;;;;6.05;4.85;;;14.40;88.10;;;;;;5036576;28;20037;-80
2023/06/03 00:35:33;;;;;;;5.70;4.35;;;14.30;88.80;;;;;;5033990;28;20032;-80
2023/06/03 00:37:59;;;;;;;8.48;5.22;;;14.30;89.40;;;;;;5039078;28;20025;-80
2023/06/03 00:40:25;;;;;;;6.00;4.90;;;14.20;89.80;;;;;;5040289;28;20030;-79
2023/06/03 00:42:51;;;;;;;5.57;4.40;;;14.20;90.10;;;;;;5035849;28;20025;-80
2023/06/03 00:45:17;;;;;;;4.20;3.80;;;14.20;90.30;;;;;;5036242;28;20029;-79
2023/06/03 00:47:43;;;;;;;4.32;3.80;;;14.20;90.50;;;;;;5033840;28;20435;-80
2023/06/03 00:50:10;;;;;;;6.68;4.38;;;14.20;90.60;;;;;;5036431;28;20022;-80
2023/06/03 00:52:38;;;;;;;5.78;4.70;;;14.20;90.80;;;;;;5037113;28;20029;-79
2023/06/03 00:55:05;;;;;;;5.57;4.72;;;14.10;90.90;;;;;;5038461;28;20087;-80
2023/06/03 00:57:31;;;;;;;5.95;4.22;;;14.10;91.00;;;;;;5038346;28;20163;-80
2023/06/03 00:59:57;;;;;;;7.95;5.38;;;14.00;91.10;;;;;;5038858;28;20081;-79
2023/06/03 01:02:26;;;;;;;6.50;5.43;;;13.90;91.30;;;;;;5038086;28;20029;-78
2023/06/03 01:04:57;;;;;;;7.90;5.13;;;13.90;91.50;;;;;;5031338;28;20391;-79
2023/06/03 01:07:35;;;;;;;7.00;4.95;;;13.80;91.70;;;;;;5042842;28;20034;-79
2023/06/03 01:10:06;;;;;;;6.75;4.63;;;13.80;91.90;;;;;;5042771;28;20073;-79
2023/06/03 01:12:41;;;;;;;7.40;5.32;;;13.70;92.10;;;;;;5041141;28;20418;-80
2023/06/03 01:15:12;;;;;;;6.43;4.80;;;13.60;92.20;;;;;;5040203;28;20339;-78
2023/06/03 01:17:45;;;;;;;6.15;5.28;;;13.60;92.40;;;;;;5040994;28;20057;-80
2023/06/03 01:20:12;;;;;;;5.88;5.07;;;13.50;92.50;;;;;;5038962;28;20032;-80
2023/06/03 01:22:40;;;;;;;7.22;5.57;;;13.50;92.80;;;;;;5040403;28;20453;-80
2023/06/03 01:25:11;;;;;;;7.70;5.63;;;13.40;93.20;;;;;;5040346;28;20096;-79
2023/06/03 01:27:38;;;;;;;7.55;5.75;;;13.30;93.10;;;;;;5051047;28;20010;-79
2023/06/03 01:30:09;;;;;;;10.52;5.47;;;13.30;93.20;;;;;;5057678;28;20017;-79
2023/06/03 01:32:37;;;;;;;14.13;5.83;;;13.20;93.30;;;;;;5053296;28;20077;-79
2023/06/03 01:35:07;;;;;;;8.50;5.68;;;13.20;93.50;;;;;;5057903;28;20279;-79
2023/06/03 01:37:33;;;;;;;6.60;5.10;;;13.10;93.60;;;;;;5055801;28;20041;-76
2023/06/03 01:40:01;;;;;;;9.25;5.20;;;13.10;93.80;;;;;;5066429;28;20033;-77
2023/06/03 01:42:26;;;;;;;6.25;5.40;;;13.00;93.90;;;;;;5057933;28;20031;-78
2023/06/03 01:44:53;;;;;;;7.43;4.70;;;13.10;94.10;;;;;;5052536;28;20478;-79
2023/06/03 01:47:19;;;;;;;8.18;5.13;;;13.00;94.10;;;;;;5037833;28;20026;-79
2023/06/03 01:49:45;;;;;;;6.90;5.15;;;13.10;94.20;;;;;;5038146;28;20488;-79
2023/06/03 01:52:11;;;;;;;6.40;5.18;;;13.00;94.20;;;;;;5039882;28;20048;-80
2023/06/03 01:54:37;;;;;;;8.10;5.25;;;13.00;94.20;;;;;;5027443;28;20041;-79
2023/06/03 01:57:03;;;;;;;9.35;5.10;;;13.00;94.20;;;;;;5034089;28;20037;-79
2023/06/03 01:59:29;;;;;;;7.85;5.30;;;13.00;94.20;;;;;;5038655;28;20107;-79
2023/06/03 02:01:59;;;;;;;6.70;4.97;;;13.00;94.20;;;;;;5037392;28;20075;-80
2023/06/03 02:04:26;;;;;;;8.65;5.93;;;13.00;94.20;;;;;;5037842;28;20089;-78
2023/06/03 02:06:58;;;;;;;9.45;5.45;;;13.00;94.20;;;;;;5037015;28;20261;-79
2023/06/03 02:09:25;;;;;;;8.07;5.43;;;13.00;94.30;;;;;;5035327;28;20455;-78
2023/06/03 02:11:52;;;;;;;10.63;5.20;;;13.00;94.40;;;;;;5047631;28;20048;-80
2023/06/03 02:14:18;;;;;;;6.38;4.97;;;13.00;94.50;;;;;;5033688;28;20022;-79
2023/06/03 02:16:43;;;;;;;8.73;5.28;;;12.90;94.40;;;;;;5019467;28;20029;-79
2023/06/03 02:19:20;;;;;;;7.85;4.88;;;12.90;94.40;;;;;;5031683;28;20377;-79
2023/06/03 02:21:46;;;;;;;5.55;4.90;;;12.90;94.40;;;;;;5041319;28;20134;-79
2023/06/03 02:24:23;;;;;;;5.57;4.38;;;12.90;94.50;;;;;;5051179;28;20018;-79
2023/06/03 02:26:52;;;;;;;6.25;4.47;;;12.80;94.50;;;;;;5044069;28;20037;-82
2023/06/03 02:29:29;;;;;;;8.85;5.10;;;12.90;94.50;;;;;;5044453;28;20398;-81
2023/06/03 02:31:55;;;;;;;7.22;5.00;;;12.80;94.40;;;;;;5041472;28;20056;-80
2023/06/03 02:34:21;;;;;;;8.52;5.07;;;12.80;94.40;;;;;;5038780;28;20036;-80
2023/06/03 02:36:47;;;;;;;6.55;4.57;;;12.80;94.30;;;;;;5031125;28;20029;-79
2023/06/03 02:39:14;;;;;;;5.20;4.57;;;12.80;94.30;;;;;;5034320;28;20080;-79
2023/06/03 02:41:44;;;;;;;9.43;4.97;;;12.70;94.20;;;;;;5057717;28;20017;-79
2023/06/03 02:44:09;;;;;;;8.75;5.32;;;12.80;94.30;;;;;;5046773;28;20053;-79
2023/06/03 02:46:36;;;;;;;5.60;4.88;;;12.70;94.30;;;;;;5050870;28;20021;-78
2023/06/03 02:49:06;;;;;;;8.32;5.57;;;12.70;94.40;;;;;;5051142;28;20030;-79
2023/06/03 02:51:32;;;;;;;6.35;4.90;;;12.70;94.40;;;;;;5044503;28;20117;-79
2023/06/03 02:53:58;;;;;;;6.57;4.88;;;12.70;94.40;;;;;;5047877;28;20026;-78
2023/06/03 02:56:24;;;;;;;6.97;4.07;;;12.60;94.50;;;;;;5052498;28;20036;-79
2023/06/03 02:58:51;;;;;;;7.63;4.78;;;12.60;94.50;;;;;;5049291;28;20032;-79
2023/06/03 03:01:18;;;;;;;8.60;4.85;;;12.50;94.60;;;;;;5045119;28;20017;-79
2023/06/03 03:03:44;;;;;;;6.35;4.45;;;12.50;94.60;;;;;;5049357;28;20033;-79
2023/06/03 03:06:16;;;;;;;10.02;4.70;;;12.50;94.60;;;;;;5048589;28;20063;-79
2023/06/03 03:08:45;;;;;;;7.03;4.35;;;12.50;94.60;;;;;;5050074;28;20043;-80
2023/06/03 03:11:11;;;;;;;5.30;4.10;;;12.40;94.70;;;;;;5033012;28;20021;-80
2023/06/03 03:13:36;;;;;;;5.47;4.47;;;12.40;94.80;;;;;;5041305;28;20451;-80
2023/06/03 03:16:02;;;;;;;6.68;4.35;;;12.40;94.70;;;;;;5039205;28;20037;-79
2023/06/03 03:18:28;;;;;;;7.07;4.93;;;12.40;94.80;;;;;;5037953;28;20470;-79
2023/06/03 03:20:54;;;;;;;6.20;4.03;;;12.40;94.80;;;;;;5040360;28;20037;-79
2023/06/03 03:23:20;;;;;;;8.05;4.13;;;12.30;94.80;;;;;;5038886;28;20028;-79
2023/06/03 03:25:46;;;;;;;8.80;5.13;;;12.30;94.90;;;;;;5042354;28;20026;-80
2023/06/03 03:28:11;;;;;;;6.13;4.45;;;12.30;94.90;;;;;;5054985;28;20068;-79
2023/06/03 03:30:38;;;;;;;5.72;4.75;;;12.30;94.90;;;;;;5053228;28;20167;-78
2023/06/03 03:33:04;;;;;;;8.75;4.55;;;12.30;94.80;;;;;;5054607;28;20052;-78
2023/06/03 03:35:31;;;;;;;8.18;5.00;;;12.30;94.70;;;;;;5053176;28;20025;-81
2023/06/03 03:38:02;;;;;;;7.05;4.45;;;12.30;94.70;;;;;;5041298;28;20116;-79
2023/06/03 03:40:29;;;;;;;6.55;3.88;;;12.30;94.80;;;;;;5048570;28;20365;-80
2023/06/03 03:42:56;;;;;;;6.47;4.03;;;12.30;94.60;;;;;;5053432;28;20040;-80
2023/06/03 03:45:25;;;;;;;8.20;4.25;;;12.30;94.40;;;;;;5038503;28;20128;-79
2023/06/03 03:47:59;;;;;;;7.90;4.35;;;12.40;94.20;;;;;;5040143;28;20029;-80
2023/06/03 03:50:40;;;;;;;8.95;3.90;;;12.40;93.90;;;;;;5038955;28;20076;-79
2023/06/03 03:53:09;;;;;;;7.25;4.00;;;12.40;93.60;;;;;;5040080;28;20104;-80
2023/06/03 03:55:43;;;;;;;6.47;3.67;;;12.50;93.30;;;;;;5039065;28;20025;-80
2023/06/03 03:58:42;;;;;;;5.20;3.22;;;12.60;93.00;;;;;;5038862;28;20044;-79
2023/06/03 04:01:16;;;;;;;5.03;3.47;;;12.60;92.90;;;;;;5037252;28;20056;-79
2023/06/03 04:03:45;;;;;;;7.70;3.97;;;12.70;92.60;;;;;;5048871;28;20113;-79
2023/06/03 04:06:13;;;;;;;8.40;4.63;;;12.70;92.20;;;;;;5052348;28;20074;-78
2023/06/03 04:08:45;;;;;;;6.13;3.70;;;12.80;91.80;;;;;;5054283;28;20076;-80
2023/06/03 04:11:26;;;;;;;11.60;4.82;;;12.80;91.40;;;;;;5062210;28;20018;-79
2023/06/03 04:13:52;;;;;;;9.98;4.60;;;12.80;91.00;;;;;;5037870;28;20514;-79
2023/06/03 04:16:46;;;;;;;8.98;3.75;;;12.80;91.10;;;;;;5035755;28;20502;-79
2023/06/03 04:19:41;;;;;;;9.18;4.40;;;12.80;91.00;;;;;;5037475;28;20268;-80
2023/06/03 04:22:09;;;;;;;6.32;3.53;;;12.90;90.70;;;;;;5035807;28;20017;-79
2023/06/03 04:24:37;;;;;;;5.78;3.30;;;12.90;90.70;;;;;;5036014;28;20021;-80
2023/06/03 04:27:03;;;;;;;4.93;3.20;;;13.00;90.70;;;;;;5037820;28;20029;-80
2023/06/03 04:29:31;;;;;;;4.70;3.40;;;13.00;90.50;;;;;;5038100;28;20024;-78
2023/06/03 04:31:56;;;;;;;7.90;3.72;;;13.10;90.20;;;;;;5035553;28;20548;-78
2023/06/03 04:34:27;;;;;;;5.00;2.72;;;13.10;90.10;;;;;;5037473;28;20033;-79
2023/06/03 04:36:53;;;;;;;6.60;3.35;;;13.10;90.00;;;;;;5038419;28;20049;-79
2023/06/03 04:39:19;;;;;;;8.20;3.58;;;13.20;90.00;;;;;;5029649;28;20030;-79
2023/06/03 04:41:44;;;;;;;4.68;3.13;;;13.20;89.90;;;;;;5047929;28;20032;-79
2023/06/03 04:44:11;;;;;;;5.65;3.25;;;13.30;89.60;;;;;;5036464;28;20033;-80
2023/06/03 04:46:37;;;;;;;6.72;3.00;;;13.30;89.40;;;;;;5037831;28;20030;-79
2023/06/03 04:49:03;;;;;;;8.60;3.55;;;13.40;89.40;;;;;;5039497;28;20029;-80
2023/06/03 04:51:33;;;;;;;5.85;3.10;;;13.50;88.70;;;;;;5038375;28;20414;-79
2023/06/03 04:54:00;;;;;;;5.88;3.10;;;13.50;89.00;;;;;;5038915;28;20017;-80
2023/06/03 04:56:29;;;;;;;8.10;3.45;;;13.50;88.50;;;;;;5038093;28;20021;-80
2023/06/03 04:59:00;;;;;;;5.20;3.20;;;13.50;88.10;;;;;;5037237;28;20101;-79
2023/06/03 05:01:27;;;;;;;9.17;3.73;;;13.70;87.90;;;;;;5038657;28;20383;-79
2023/06/03 05:03:53;;;;;;;9.13;3.88;;;13.70;87.30;;;;;;5038090;28;20252;-79
2023/06/03 05:06:19;;;;;;;7.25;3.40;;;13.90;87.30;;;;;;5038240;28;20458;-79
2023/06/03 05:08:48;;;;;;;3.88;2.60;;;14.70;87.50;;;;;;5038419;28;20037;-79
2023/06/03 05:11:15;;;;;;;6.07;2.90;;;16.30;82.10;;;;;;5043172;28;20023;-79
2023/06/03 05:13:41;;;;;;;8.02;2.58;;;;;;;;;;5036574;28;20033;-79
2023/06/03 05:16:07;;;;;;;8.75;3.70;;;19.70;68.70;;;;;;5035998;28;20155;-79
2023/06/03 05:18:33;;;;;;;8.73;3.53;;;20.80;64.00;;;;;;5037889;28;20033;-79
2023/06/03 05:20:58;;;;;;;5.25;3.30;;;21.30;60.50;;;;;;5035791;28;20036;-79
2023/06/03 05:23:24;;;;;;;5.40;2.92;;;21.60;59.70;;;;;;5035609;28;20167;-79
2023/06/03 05:25:49;;;;;;;7.75;2.95;;;22.00;58.80;;;;;;5042436;28;20017;-79
2023/06/03 05:28:15;;;;;;;4.65;2.50;;;22.60;56.70;;;;;;5051913;28;20033;-78
2023/06/03 05:30:41;;;;;;;2.88;2.60;;;23.00;55.60;;;;;;5047122;28;20033;-78
2023/06/03 05:33:06;;;;;;;4.50;2.60;;;23.30;55.20;;;;;;5036639;28;20029;-80
2023/06/03 05:35:32;;;;;;;3.28;2.53;;;23.60;54.40;;;;;;5051140;28;20029;-78
2023/06/03 05:37:58;;;;;;;2.83;2.22;;;23.90;53.70;;;;;;5045417;28;20041;-79
2023/06/03 05:40:24;;;;;;;2.22;1.75;;;24.70;52.30;;;;;;5051953;28;20063;-80
2023/06/03 05:42:49;;;;;;;2.63;1.73;;;25.20;50.80;;;;;;5045891;28;20040;-80
2023/06/03 05:45:15;;;;;;;4.32;2.17;;;25.60;49.60;;;;;;5036701;28;20025;-79
2023/06/03 05:47:41;;;;;;;4.65;2.10;;;25.80;49.10;;;;;;5035856;28;20034;-79
2023/06/03 05:50:07;;;;;;;5.70;2.50;;;26.00;48.50;;;;;;5038574;28;20036;-80
2023/06/03 05:52:33;;;;;;;3.88;2.10;;;25.80;48.10;;;;;;5042038;28;20030;-79
2023/06/03 05:54:58;;;;;;;2.05;1.92;;;25.80;49.20;;;;;;5039784;28;20052;-79
2023/06/03 05:57:24;;;;;;;3.20;1.58;;;26.40;48.40;;;;;;5040557;28;20394;-78
2023/06/03 05:59:51;;;;;;;3.15;2.10;;;27.00;47.30;;;;;;5039439;28;20022;-79
2023/06/03 06:02:20;;;;;;;4.43;2.45;;;27.10;46.20;;;;;;5041931;28;20024;-80
2023/06/03 06:04:46;;;;;;;3.08;2.25;;;26.60;46.90;;;;;;5042535;28;20080;-79
2023/06/03 06:07:12;;;;;;;2.60;2.33;;;26.70;46.70;;;;;;5040982;28;20144;-80
2023/06/03 06:09:38;;;;;;;3.45;2.42;;;27.10;46.70;;;;;;5044912;28;20092;-79
2023/06/03 06:12:04;;;;;;;2.90;1.90;;;27.20;46.30;;;;;;5050534;28;20437;-80
2023/06/03 06:14:30;;;;;;;6.07;3.42;;;27.50;45.80;;;;;;5045391;28;20097;-80
2023/06/03 06:17:02;;;;;;;4.88;3.38;;;27.30;45.00;;;;;;5044052;28;20486;-80
2023/06/03 06:19:28;;;;;;;4.13;3.05;;;26.70;45.60;;;;;;5043023;28;20036;-81
2023/06/03 06:21:54;;;;;;;3.53;2.20;;;26.60;47.20;;;;;;5041999;28;20057;-77
2023/06/03 06:24:19;;;;;;;3.38;2.70;;;27.20;47.00;;;;;;5043239;28;20465;-80
2023/06/03 06:26:49;;;;;;;3.22;2.45;;;27.80;46.10;;;;;;5041387;28;20044;-78
2023/06/03 06:29:15;;;;;;;4.80;3.13;;;28.50;45.10;;;;;;5040678;28;20037;-78
2023/06/03 06:31:41;;;;;;;4.28;2.38;;;28.60;43.90;;;;;;5039672;28;20552;-79
2023/06/03 06:34:08;;;;;;;3.00;2.40;;;28.50;44.10;;;;;;5040374;28;20071;-79
2023/06/03 06:36:49;;;;;;;7.28;3.83;;;;;;;;;;5041180;28;20040;-78
2023/06/03 06:39:33;;;;;;;5.18;3.70;;;27.70;43.80;;;;;;5054626;28;20032;-78
2023/06/03 06:42:21;;;;;;;4.22;2.80;;;;;;;;;;5056334;28;20108;-80
2023/06/03 06:44:49;;;;;;;4.47;2.72;;;26.80;46.00;;;;;;5041442;28;20068;-79
2023/06/03 06:47:21;;;;;;;2.97;2.35;;;26.90;46.30;;;;;;5043176;28;20089;-79
2023/06/03 06:49:48;;;;;;;2.75;2.38;;;27.40;46.40;;;;;;5052767;28;20040;-76
2023/06/03 06:52:14;;;;;;;5.55;2.58;;;28.20;45.30;;;;;;5049494;28;20075;-80
2023/06/03 06:54:41;;;;;;;4.43;2.83;;;28.20;44.20;;;;;;5042031;28;20029;-81
2023/06/03 06:57:07;;;;;;;7.05;3.20;;;;;;;;;;5045573;28;20025;-80
2023/06/03 06:59:33;;;;;;;3.83;2.70;;;27.40;44.70;;;;;;5044195;28;20029;-79
2023/06/03 07:01:59;;;;;;;4.07;3.00;;;27.30;46.30;;;;;;5046451;28;20047;-80
2023/06/03 07:04:25;;;;;;;2.90;2.70;;;27.40;45.50;;;;;;5046971;28;20041;-80
2023/06/03 07:06:51;;;;;;;4.40;2.70;;;27.60;45.70;;;;;;5045106;28;20025;-80
2023/06/03 07:09:16;;;;;;;2.05;1.95;;;27.90;45.50;;;;;;5050408;28;20035;-78
2023/06/03 07:11:44;;;;;;;3.40;2.88;;;28.20;44.80;;;;;;5049874;28;20029;-79
2023/06/03 07:14:10;;;;;;;5.43;3.42;;;;;;;;;;5044188;28;20037;-78
2023/06/03 07:16:36;;;;;;;5.20;3.13;;;26.20;44.60;;;;;;5042918;28;20044;-79
2023/06/03 07:19:03;;;;;;;4.03;3.28;;;23.80;49.10;;;;;;5046714;28;20029;-79
2023/06/03 07:21:30;;;;;;;6.97;4.20;;;22.10;53.30;;;;;;5046413;28;20028;-81
2023/06/03 07:23:56;;;;;;;5.55;3.63;;;21.00;56.00;;;;;;5044965;28;20028;-81
2023/06/03 07:26:31;;;;;;;5.97;3.72;;;20.00;58.70;;;;;;5046083;28;20029;-80
2023/06/03 07:29:01;;;;;;;6.18;3.92;;;19.20;61.10;;;;;;5046128;28;20025;-80
2023/06/03 07:31:35;;;;;;;9.98;4.80;;;18.80;62.90;;;;;;5046661;28;20122;-83
2023/06/03 07:34:02;;;;;;;7.18;4.07;;;18.60;63.80;;;;;;5048713;28;20025;-79
2023/06/03 07:36:28;;;;;;;7.00;3.38;;;18.40;65.10;;;;;;5051136;28;20100;-81
2023/06/03 07:38:54;;;;;;;5.50;4.10;;;18.40;65.80;;;;;;5056404;28;20033;-80
2023/06/03 07:41:37;;;;;;;10.27;5.15;;;18.40;65.70;;;;;;5065150;28;20025;-79
2023/06/03 07:44:11;;;;;;;9.98;5.03;;;18.40;65.70;;;;;;5050743;28;20047;-78
2023/06/03 07:46:44;;;;;;;10.95;4.30;;;18.30;66.10;;;;;;5046431;28;20124;-79
2023/06/03 07:49:15;;;;;;;7.13;4.80;;;18.30;66.60;;;;;;5050231;28;20029;-79
2023/06/03 07:51:48;;;;;;;9.73;4.70;;;18.30;66.50;;;;;;5054219;28;20024;-80
2023/06/03 07:54:15;;;;;;;6.28;3.83;;;18.30;66.70;;;;;;5054773;28;20013;-79
2023/06/03 07:56:42;;;;;;;6.22;3.90;;;18.30;67.00;;;;;;5044679;28;20037;-81
2023/06/03 07:59:12;;;;;;;6.45;3.33;;;18.50;67.30;;;;;;5041271;28;20120;-79
2023/06/03 08:01:39;;;;;;;4.47;3.38;;;18.50;66.70;;;;;;5043819;28;20045;-80
2023/06/03 08:04:18;;;;;;;8.02;3.78;;;18.70;66.70;;;;;;5041189;28;20454;-80
2023/06/03 08:06:44;;;;;;;6.55;3.85;;;18.80;66.20;;;;;;5047891;28;20090;-79
2023/06/03 08:09:18;;;;;;;4.47;3.17;;;18.80;66.20;;;;;;5049357;28;20082;-79
2023/06/03 08:11:44;;;;;;;5.78;4.28;;;18.90;66.30;;;;;;5047532;28;20033;-79
2023/06/03 08:14:10;;;;;;;6.13;4.63;;;19.00;65.80;;;;;;5044395;28;20048;-80
2023/06/03 08:16:36;;;;;;;5.70;3.90;;;19.00;65.30;;;;;;5042276;28;20036;-79
2023/06/03 08:19:03;;;;;;;7.47;4.57;;;19.00;66.10;;;;;;5046561;28;20033;-78
2023/06/03 08:21:30;;;;;;;9.70;4.88;;;19.10;65.70;;;;;;5041709;28;20571;-79
2023/06/03 08:23:56;;;;;;;11.38;4.50;;;19.20;65.20;;;;;;5038156;28;20371;-79
2023/06/03 08:26:21;;;;;;;6.80;4.05;;;19.10;65.30;;;;;;5036429;28;20535;-79
2023/06/03 08:28:48;;;;;;;5.35;4.70;;;19.00;65.80;;;;;;5038982;28;20057;-79
2023/06/03 08:31:13;;;;;;;6.75;4.35;;;19.10;65.60;;;;;;5038658;28;20021;-79
2023/06/03 08:33:39;;;;;;;5.97;4.15;;;19.20;65.40;;;;;;5038461;28;20032;-79
2023/06/03 08:36:05;;;;;;;10.43;4.13;;;19.20;65.00;;;;;;5038101;28;20390;-78
2023/06/03 08:38:31;;;;;;;4.07;3.60;;;19.20;64.60;;;;;;5038795;28;20022;-79
2023/06/03 08:40:58;;;;;;;6.00;3.60;;;19.20;65.10;;;;;;5046303;28;20112;-80
2023/06/03 08:43:36;;;;;;;7.70;4.35;;;19.40;65.20;;;;;;5052037;28;20088;-79
2023/06/03 08:46:30;;;;;;;6.18;4.35;;;19.40;64.50;;;;;;5041590;28;20030;-80
2023/06/03 08:49:11;;;;;;;6.60;4.38;;;19.60;63.90;;;;;;5047207;28;20030;-79
2023/06/03 08:51:43;;;;;;;4.35;3.63;;;19.60;64.00;;;;;;5053322;28;20013;-79
2023/06/03 08:54:18;;;;;;;6.35;3.92;;;19.80;64.00;;;;;;5051959;28;20009;-80
2023/06/03 08:57:05;;;;;;;6.82;3.85;;;20.00;63.60;;;;;;5052085;28;20053;-78
2023/06/03 08:59:37;;;;;;;5.22;4.35;;;20.10;63.10;;;;;;5038840;28;20028;-79
2023/06/03 09:02:05;;;;;;;4.80;3.53;;;20.20;63.30;;;;;;5038200;28;20026;-79
2023/06/03 09:04:31;;;;;;;6.32;3.55;;;20.50;62.60;;;;;;5037050;28;20063;-80
2023/06/03 09:06:58;;;;;;;6.35;3.78;;;20.80;61.80;;;;;;5038831;28;20049;-80
2023/06/03 09:09:27;;;;;;;5.38;3.65;;;20.90;60.90;;;;;;5039420;28;20139;-80
2023/06/03 09:11:54;;;;;;;4.07;3.17;;;20.90;60.60;;;;;;5054837;28;20077;-80
2023/06/03 09:14:20;;;;;;;7.35;4.25;;;20.90;60.70;;;;;;5054199;28;20037;-80
2023/06/03 09:16:47;;;;;;;7.43;4.05;;;20.80;61.00;;;;;;5054397;28;20037;-79
2023/06/03 09:19:13;;;;;;;5.35;3.35;;;20.70;61.20;;;;;;5048925;28;20459;-80
2023/06/03 09:21:43;;;;;;;4.43;3.20;;;20.70;61.70;;;;;;5039705;28;20064;-80
2023/06/03 09:24:10;;;;;;;5.13;4.10;;;20.80;61.60;;;;;;5040794;28;20025;-80
2023/06/03 09:26:36;;;;;;;4.50;3.38;;;21.00;61.20;;;;;;5042930;28;20021;-81
2023/06/03 09:29:02;;;;;;;9.75;3.75;;;21.00;61.20;;;;;;5044433;28;20457;-79
2023/06/03 09:31:29;;;;;;;6.82;4.13;;;21.10;60.90;;;;;;5048680;28;20029;-80
2023/06/03 09:33:55;;;;;;;7.38;3.85;;;21.10;60.30;;;;;;5052407;28;20051;-78
2023/06/03 09:36:21;;;;;;;5.70;3.78;;;21.20;60.40;;;;;;5052442;28;20033;-80
2023/06/03 09:38:50;;;;;;;5.47;3.47;;;21.10;60.10;;;;;;5052061;28;20032;-80
2023/06/03 09:41:26;;;;;;;5.65;3.58;;;21.00;60.90;;;;;;5063431;28;20045;-81
2023/06/03 09:44:01;;;;;;;9.10;4.05;;;21.00;61.10;;;;;;5057533;28;20037;-80
2023/06/03 09:46:30;;;;;;;4.30;3.05;;;21.10;60.40;;;;;;5049416;28;20033;-79
2023/06/03 09:49:11;;;;;;;3.58;2.80;;;21.20;61.00;;;;;;5054122;28;20097;-79
2023/06/03 09:51:45;;;;;;;7.93;4.20;;;21.40;60.50;;;;;;5051601;28;20025;-80
2023/06/03 09:54:15;;;;;;;4.65;4.07;;;21.70;58.40;;;;;;5051515;28;20100;-80
2023/06/03 09:56:42;;;;;;;3.67;3.28;;;21.60;58.40;;;;;;5054407;28;20117;-79
2023/06/03 09:59:14;;;;;;;5.72;3.55;;;;;;;;;;5054322;28;20026;-80
2023/06/03 10:01:41;;;;;;;6.18;3.53;;;21.80;58.60;;;;;;5053103;28;20096;-79
2023/06/03 10:04:07;;;;;;;4.78;3.15;;;22.00;58.00;;;;;;5052960;28;20403;-80
2023/06/03 10:06:35;;;;;;;4.57;3.35;;;21.90;58.20;;;;;;5054880;28;20084;-80
2023/06/03 10:09:18;;;;;;;6.82;3.45;;;21.80;57.60;;;;;;5056969;28;20020;-80
2023/06/03 10:11:50;;;;;;;9.88;4.30;;;21.80;58.70;;;;;;5056220;28;20090;-80
2023/06/03 10:14:21;;;;;;;5.32;3.78;;;22.10;57.70;;;;;;5051659;28;20029;-80
2023/06/03 10:17:08;;;;;;;6.75;4.18;;;22.20;57.40;;;;;;5050982;28;20073;-80
2023/06/03 10:19:39;;;;;;;7.70;3.95;;;22.20;57.40;;;;;;5052131;28;20037;-79
2023/06/03 10:22:05;;;;;;;4.70;3.25;;;;;;;;;;5053251;28;20041;-78
2023/06/03 10:24:45;;;;;;;6.60;3.85;;;22.00;57.60;;;;;;5053376;28;20550;-78
2023/06/03 10:27:11;;;;;;;5.75;3.60;;;22.00;57.80;;;;;;5062091;22;20513;-76
2023/06/03 10:29:37;;;;;;;3.78;2.83;;;22.20;57.40;;;;;;5052337;28;20285;-74
2023/06/03 10:32:06;;;;;;;5.25;3.42;;;22.30;57.00;;;;;;5054432;28;20029;-75
2023/06/03 10:34:36;;;;;;;4.43;3.58;;;22.40;56.80;;;;;;5053724;28;20021;-75
2023/06/03 10:37:05;;;;;;;6.53;3.80;;;22.50;56.80;;;;;;5048078;28;20034;-76
2023/06/03 10:39:31;;;;;;;8.43;3.63;;;22.60;55.90;;;;;;5038044;28;20040;-76
2023/06/03 10:41:58;;;;;;;3.75;3.35;;;;;;;;;;5039357;28;20017;-75
2023/06/03 10:44:24;;;;;;;7.30;3.90;;;23.00;54.60;;;;;;5033373;28;20033;-75
2023/06/03 10:46:54;;;;;;;8.40;3.40;;;;;;;;;;5035258;28;20489;-75
2023/06/03 10:49:24;;;;;;;7.35;4.10;;;22.80;54.30;;;;;;5036351;28;20064;-76
2023/06/03 10:52:27;;;;;;;8.57;3.67;;;22.70;55.50;;;;;;5035472;28;20171;-75
2023/06/03 10:54:56;;;;;;;6.15;3.90;;;22.70;55.30;;;;;;5034206;28;20478;-75
2023/06/03 10:57:31;;;;;;;4.50;3.38;;;22.60;55.10;;;;;;5034858;28;20029;-75
2023/06/03 10:59:59;;;;;;;4.72;3.63;;;22.50;56.00;;;;;;5034901;28;20024;-76
2023/06/03 11:02:25;;;;;;;7.68;4.40;;;22.70;55.50;;;;;;5022461;28;20045;-76
2023/06/03 11:05:24;;;;;;;4.85;3.70;;;22.70;55.00;;;;;;5034963;28;20048;-77
2023/06/03 11:07:50;;;;;;;5.22;3.45;;;;;;;;;;5035132;28;20026;-76
2023/06/03 11:10:43;;;;;;;6.22;4.07;;;22.80;54.30;;;;;;5043262;28;20021;-76
2023/06/03 11:13:11;;;;;;;7.40;3.97;;;23.00;54.90;;;;;;5030590;28;20029;-76
2023/06/03 11:16:00;;;;;;;7.88;4.22;;;23.20;54.50;;;;;;5034420;28;20425;-76
2023/06/03 11:18:26;;;;;;;7.43;3.97;;;23.40;54.30;;;;;;5034499;28;20028;-77
2023/06/03 11:20:51;;;;;;;10.63;3.72;;;23.50;53.70;;;;;;5035670;28;20083;-76
2023/06/03 11:23:44;;;;;;;4.80;3.45;;;23.40;53.10;;;;;;5034898;28;20458;-75
2023/06/03 11:26:34;;;;;;;4.72;2.97;;;23.20;54.00;;;;;;5034079;28;20025;-76
2023/06/03 11:29:06;;;;;;;5.93;3.47;;;23.20;54.40;;;;;;5013928;28;20041;-75
2023/06/03 11:31:33;;;;;;;6.63;3.72;;;23.50;54.10;;;;;;5022953;28;20109;-76
2023/06/03 11:34:18;;;;;;;4.88;3.50;;;23.60;53.10;;;;;;5032985;28;20029;-76
2023/06/03 11:36:47;;;;;;;5.13;3.53;;;23.60;53.30;;;;;;5035357;28;20033;-75
2023/06/03 11:39:13;;;;;;;6.30;4.10;;;23.70;53.20;;;;;;5032013;28;20121;-76
2023/06/03 11:42:02;;;;;;;6.63;3.45;;;23.60;53.20;;;;;;5036136;28;20061;-76
2023/06/03 11:44:27;;;;;;;4.22;3.35;;;23.70;53.10;;;;;;5033946;28;20025;-75
2023/06/03 11:46:54;;;;;;;5.00;4.05;;;23.90;52.80;;;;;;5032798;28;20048;-76
2023/06/03 11:49:23;;;;;;;7.68;3.58;;;23.90;51.80;;;;;;5034070;28;20113;-76
2023/06/03 11:51:56;;;;;;;5.93;3.70;;;;;;;;;;5034774;28;20022;-76
2023/06/03 11:54:22;;;;;;;6.53;3.13;;;23.80;51.60;;;;;;5033337;28;20092;-76
2023/06/03 11:56:50;;;;;;;5.93;3.67;;;23.80;52.50;;;;;;5031929;28;20025;-75
2023/06/03 11:59:19;;;;;;;5.13;3.42;;;24.00;51.90;;;;;;5034414;28;20024;-75
2023/06/03 12:01:58;;;;;;;7.13;3.65;;;24.00;51.90;;;;;;5033522;28;20029;-76
2023/06/03 12:04:25;;;;;;;5.22;3.60;;;24.00;51.80;;;;;;5032484;28;20053;-76
2023/06/03 12:06:50;;;;;;;4.95;3.83;;;23.90;50.90;;;;;;5033194;28;20033;-75
2023/06/03 12:09:18;;;;;;;4.63;3.20;;;23.70;52.10;;;;;;5038780;28;20033;-76
2023/06/03 12:11:44;;;;;;;4.32;3.10;;;23.70;51.90;;;;;;5042781;28;20039;-76
2023/06/03 12:14:10;;;;;;;14.57;4.00;;;23.90;51.60;;;;;;5032483;28;20431;-76
2023/06/03 12:16:37;;;;;;;6.10;4.13;;;24.00;50.80;;;;;;5032939;28;20045;-76
2023/06/03 12:19:05;;;;;;;6.85;3.25;;;23.90;50.70;;;;;;5033522;28;20044;-76
2023/06/03 12:21:32;;;;;;;4.50;3.45;;;23.80;51.30;;;;;;5033101;28;20474;-76
2023/06/03 12:23:58;;;;;;;9.80;3.95;;;23.90;51.30;;;;;;5033123;28;20025;-76
2023/06/03 12:26:25;;;;;;;4.18;3.42;;;23.80;51.40;;;;;;5033622;28;20371;-76
2023/06/03 12:28:52;;;;;;;5.93;3.50;;;23.90;52.00;;;;;;5033562;28;20032;-76
2023/06/03 12:31:18;;;;;;;5.82;3.80;;;;;;;;;;5033102;28;20025;-76
2023/06/03 12:33:45;;;;;;;10.15;4.43;;;;;;;;;;5032829;28;20470;-76
2023/06/03 12:36:12;;;;;;;7.50;4.30;;;;;;;;;;5032426;28;20030;-75
2023/06/03 12:38:58;;;;;;;5.90;3.70;;;24.10;50.00;;;;;;5032775;28;20022;-75
2023/06/03 12:41:24;;;;;;;3.38;3.08;;;24.00;50.90;;;;;;5038971;28;20397;-76
2023/06/03 12:43:58;;;;;;;5.15;3.78;;;;;;;;;;5034465;28;20029;-75
2023/06/03 12:46:24;;;;;;;4.75;3.75;;;24.60;48.70;;;;;;5033538;28;20025;-76
2023/06/03 12:48:52;;;;;;;3.60;3.28;;;24.60;49.50;;;;;;5031723;28;20038;-75
2023/06/03 12:51:29;;;;;;;4.55;3.50;;;24.70;49.40;;;;;;5030893;28;20026;-76
2023/06/03 12:53:56;;;;;;;5.80;3.13;;;24.90;48.80;;;;;;5032431;28;20540;-76
2023/06/03 12:56:26;;;;;;;3.53;2.90;;;25.10;48.70;;;;;;5032948;28;20056;-76
2023/06/03 12:58:53;;;;;;;6.05;3.72;;;25.20;48.40;;;;;;5036063;28;20052;-75
2023/06/03 13:01:22;;;;;;;4.38;3.03;;;25.30;47.60;;;;;;5040615;28;20203;-75